OOLO2: Oologah Lake

Data processed at Sun Sep 23 2018 22:02


All information presented herein is the property of the government of the United States of America and may be revised or deleted at any time without prior notice.
Dissemination of this information without the expressed written consent of the Public Affairs Office, Tulsa District U.S. Army Corps of Engineers is strictly prohibited.
These data are gathered electronically and, as presented, have not undergone any form of quality control. These data are not guaranteed to be valid or correct.
Go to home page.
Go to station list.
Go to home page.

Upstream stations:

Downstream station:
Previous Day
Next Day
Current Day
    
SHEF ID:       OOLO2     Oologah Lake
STATION TYPE:  RESERVOIR
Normal Pool:  Bottom =   592.00, Top =   638.00

               PRECIP  RIV-FLOW ELEVATION   STORAGE   TW-ELEV    INFLOW   RELEASE  AIR-TEMP  WIND-DIRWIND-SPEED REL-HUMID SOLAR-RAD   VOLTAGE  BAT-LOAD
                   in       cfs        ft     ac-ft        ft       cfs       cfs         F       deg       mph         %      W/m2      volt      volt
              Ccp-Rev   Ccp-Rev   Ccp-Rev   Ccp-Rev   Ccp-Rev  Regi-Rev  Regi-Rev   Ccp-Rev   Ccp-Rev   Ccp-Rev   Ccp-Rev   Ccp-Rev   Ccp-Rev   Ccp-Rev
(US/Central)
09/23 00:00      0.00      8170    641.23    555394     18.89         2        74     67.08     34.10      5.00     79.62      0.00     13.49     13.21
09/23 01:00      0.00      8170    641.20    554432     18.89         2        75     67.08     27.50      5.60     79.10      0.00     13.49     13.21
09/23 02:00      0.00      8157    641.20    554432     18.88         2        74     67.23    352.30      4.40     79.52      0.00     13.49     13.21
09/23 03:00      0.00      8170    641.18    553791     18.89         2        74     66.56    352.60      5.50     81.97      0.00     13.49     13.21
09/23 04:00      0.00      8157    641.15    552829     18.88         2        74     66.07    355.60      3.40     85.22      0.00     13.49     13.21
09/23 05:00      0.00      8157    641.14    552508     18.88         0        74     65.44    353.70      3.80     88.75      0.00     13.48     13.21
09/23 06:00      0.00      8157    641.12    551867     18.88         0        74     65.16    352.70      4.90     89.62      0.00     13.49     13.21
09/23 07:00      0.00      8143    641.10    551225     18.87         0        74     65.28    353.00      4.60     90.33      0.00     13.48     13.21
09/23 08:00      0.00      8143    641.08    550584     18.87         0        74     65.52      6.10      4.20     90.40      4.30     13.49     13.21
09/23 09:00      0.00      8157    641.06    549942     18.88         0        74     65.68    352.60      3.90     89.73     46.00     13.49     13.21
09/23 10:00      0.00      8143    641.05    549622     18.87         0        74     66.15    346.40      4.90     87.54    124.10     13.49     13.21
09/23 11:00      0.00      8143    641.02    548659     18.87         0        74     66.79    340.90      6.40     83.54    125.80     13.49     12.89
09/23 12:00      0.00      8143    641.00    548018     18.87         0        74     67.84    329.60      5.20     80.21    326.30     13.49     13.21
09/23 13:00      0.00      8143    640.99    547706     18.87         0        74     69.60    327.10      5.60     75.91    397.50     13.49     13.21
09/23 14:00      0.00      8130    640.94    546148     18.86         0        74     71.19    338.30      4.30     73.63    363.80     13.50     13.21
09/23 15:00      0.00      8117    640.92    545525     18.85         0        74     72.82      6.40      3.50     71.73    227.10     13.49     13.21
09/23 16:00      0.00      8130    640.91    545213     18.86         0        74     73.33     40.90      3.10     71.24    180.90     13.50     13.21
09/23 17:00      0.00      8130    640.88    544279     18.86         0        74     73.94     23.50      2.50     70.77    167.90     13.49     13.21
09/23 18:00      0.00      8130    640.86    543655     18.86         0        74     73.94     36.50      2.30     70.93     60.90     13.49     13.21
09/23 19:00      0.00      8130    640.85    543344     18.86         0        74     73.65     51.10      2.80     71.05     11.50     13.49     13.21
09/23 20:00      0.00      8117    640.83    542721     18.85      -901      -901     73.54     25.20      3.10     71.93      0.00     13.49     13.21
09/23 21:00      0.00      8103    640.80    541786     18.84      -901      -901     73.02    353.40      4.40     75.00      0.00     13.49     13.21
09/23 22:00      ----      ----      ----      ----      ----      -901      -901     72.70    356.60      4.10     75.57      0.00     13.49     13.21
09/23 23:00      ----      ----      ----      ----      ----      ----      ----      ----      ----      ----      ----      ----      ----      ----